Time;durP1;ratioP1;P1;durP2;ratioP2;P2;SDS_P1;SDS_P2;PMS_P1;PMS_P2;Temp;Humidity;BMP_temperature;BMP_pressure;BME280_temperature;BME280_humidity;BME280_pressure;Samples;Min_cycle;Max_cycle;Signal;HPM_P1;HPM_P2
2021/10/11 00:00:58;;;;;;;18.23;15.83;;;6.60;99.90;;;;;;5012211;28;20213;-66
2021/10/11 00:03:23;;;;;;;21.03;15.80;;;6.60;99.90;;;;;;5012410;28;20512;-66
2021/10/11 00:05:49;;;;;;;20.60;16.63;;;6.60;99.90;;;;;;5012050;28;20528;-65
2021/10/11 00:08:14;;;;;;;21.53;16.47;;;6.60;99.90;;;;;;5011656;28;20711;-65
2021/10/11 00:10:40;;;;;;;21.10;16.30;;;6.60;99.90;;;;;;5012232;28;20525;-67
2021/10/11 00:13:05;;;;;;;18.00;16.20;;;6.50;99.90;;;;;;5011275;28;20187;-64
2021/10/11 00:15:31;;;;;;;21.23;16.80;;;6.50;99.90;;;;;;5011927;28;20203;-65
2021/10/11 00:17:57;;;;;;;19.17;17.23;;;6.50;99.90;;;;;;5011500;28;20240;-66
2021/10/11 00:20:23;;;;;;;21.53;17.20;;;6.40;99.90;;;;;;5012176;28;20230;-65
2021/10/11 00:22:49;;;;;;;24.43;17.13;;;6.40;99.90;;;;;;5011885;28;20186;-65
2021/10/11 00:25:15;;;;;;;18.27;16.30;;;6.50;99.90;;;;;;5012182;28;20517;-65
2021/10/11 00:27:40;;;;;;;18.47;16.67;;;6.50;99.90;;;;;;5011765;28;20194;-65
2021/10/11 00:30:09;;;;;;;19.33;17.07;;;6.40;99.90;;;;;;5011852;28;20494;-65
2021/10/11 00:32:35;;;;;;;15.77;14.10;;;6.40;99.90;;;;;;5011661;28;20190;-66
2021/10/11 00:35:00;;;;;;;20.07;16.00;;;6.30;99.90;;;;;;5011731;28;20442;-65
2021/10/11 00:37:26;;;;;;;19.03;15.50;;;6.30;99.90;;;;;;5011253;28;20574;-66
2021/10/11 00:39:52;;;;;;;17.43;15.03;;;6.30;99.90;;;;;;5011529;28;20469;-65
2021/10/11 00:42:17;;;;;;;19.97;14.90;;;6.30;99.90;;;;;;5011933;28;20174;-65
2021/10/11 00:44:43;;;;;;;17.50;15.10;;;6.20;99.90;;;;;;5011600;28;20533;-65
2021/10/11 00:47:09;;;;;;;18.93;16.50;;;6.20;99.90;;;;;;5011707;28;20186;-68
2021/10/11 00:49:35;;;;;;;22.63;16.27;;;6.30;99.90;;;;;;5011389;28;20457;-65
2021/10/11 00:52:01;;;;;;;16.67;14.10;;;6.30;99.90;;;;;;5011711;28;20271;-65
2021/10/11 00:54:29;;;;;;;18.77;16.93;;;6.30;99.90;;;;;;5011576;28;20570;-65
2021/10/11 00:56:54;;;;;;;20.03;15.87;;;6.20;99.90;;;;;;5011545;28;20693;-65
2021/10/11 00:59:20;;;;;;;15.73;13.90;;;6.20;99.90;;;;;;5013735;28;20651;-64
2021/10/11 01:01:45;;;;;;;17.17;14.77;;;6.20;99.90;;;;;;5021785;28;20203;-65
2021/10/11 01:04:11;;;;;;;18.13;15.13;;;6.10;99.90;;;;;;5011709;28;20201;-65
2021/10/11 01:06:39;;;;;;;17.80;15.53;;;6.00;99.90;;;;;;5011301;28;20186;-66
2021/10/11 01:09:07;;;;;;;20.03;16.77;;;5.90;99.90;;;;;;5000889;28;20528;-66
2021/10/11 01:11:33;;;;;;;21.40;17.20;;;6.00;99.90;;;;;;5011625;28;20429;-65
2021/10/11 01:13:58;;;;;;;24.17;17.13;;;6.00;99.90;;;;;;5011679;28;20489;-65
2021/10/11 01:16:24;;;;;;;19.53;16.63;;;6.00;99.90;;;;;;5011384;28;20175;-65
2021/10/11 01:18:50;;;;;;;19.90;16.27;;;6.10;99.90;;;;;;5010807;28;20199;-66
2021/10/11 01:21:15;;;;;;;18.60;16.70;;;6.00;99.90;;;;;;5011526;28;20199;-65
2021/10/11 01:23:41;;;;;;;19.00;15.77;;;6.00;99.90;;;;;;5011657;28;20187;-65
2021/10/11 01:26:06;;;;;;;21.10;15.80;;;6.00;99.90;;;;;;5014831;28;20183;-66
2021/10/11 01:28:32;;;;;;;21.67;16.87;;;6.00;99.90;;;;;;5014415;28;20191;-65
2021/10/11 01:30:57;;;;;;;19.43;17.03;;;6.00;99.90;;;;;;5014829;28;20186;-65
2021/10/11 01:33:23;;;;;;;20.57;16.70;;;5.90;99.90;;;;;;5014945;28;20179;-66
2021/10/11 01:35:49;;;;;;;23.33;17.00;;;5.90;99.90;;;;;;5014619;28;20186;-66
2021/10/11 01:38:15;;;;;;;17.00;15.20;;;5.90;99.90;;;;;;5014067;28;20507;-65
2021/10/11 01:40:40;;;;;;;20.57;16.90;;;5.90;99.90;;;;;;5014822;28;20213;-65
2021/10/11 01:43:08;;;;;;;20.80;15.57;;;5.80;99.90;;;;;;5014461;28;20175;-66
2021/10/11 01:45:34;;;;;;;17.00;14.43;;;5.80;99.90;;;;;;5014565;28;20429;-65
2021/10/11 01:47:59;;;;;;;20.90;17.27;;;5.80;99.90;;;;;;5014293;28;20495;-65
2021/10/11 01:50:25;;;;;;;18.17;15.63;;;5.80;99.90;;;;;;5014556;28;20430;-65
2021/10/11 01:52:50;;;;;;;22.40;16.83;;;5.80;99.90;;;;;;5014479;28;20707;-66
2021/10/11 01:55:16;;;;;;;19.93;16.80;;;5.80;99.90;;;;;;5014151;28;20237;-65
2021/10/11 01:57:41;;;;;;;23.20;17.20;;;5.80;99.90;;;;;;5014127;28;20187;-65
2021/10/11 02:00:08;;;;;;;19.07;16.07;;;5.80;99.90;;;;;;5023177;28;20212;-65
2021/10/11 02:02:35;;;;;;;19.67;16.47;;;5.80;99.90;;;;;;5021299;28;20167;-66
2021/10/11 02:05:00;;;;;;;32.00;17.37;;;5.80;99.90;;;;;;5014085;28;20440;-66
2021/10/11 02:07:26;;;;;;;22.17;17.83;;;5.70;99.90;;;;;;5013863;28;20430;-67
2021/10/11 02:09:51;;;;;;;21.90;17.17;;;5.70;99.90;;;;;;5014199;28;20187;-65
2021/10/11 02:12:18;;;;;;;21.57;16.90;;;5.70;99.90;;;;;;5014318;28;20175;-65
2021/10/11 02:14:43;;;;;;;17.80;15.93;;;5.70;99.90;;;;;;5014173;28;20561;-66
2021/10/11 02:17:09;;;;;;;17.30;15.20;;;5.70;99.90;;;;;;5013451;28;20430;-67
2021/10/11 02:19:35;;;;;;;19.97;16.43;;;5.70;99.90;;;;;;5013641;28;20199;-64
2021/10/11 02:22:00;;;;;;;21.43;17.37;;;5.70;99.90;;;;;;5013986;28;20175;-65
2021/10/11 02:24:26;;;;;;;22.57;17.37;;;5.60;99.90;;;;;;5013858;28;20186;-65
2021/10/11 02:26:51;;;;;;;21.23;16.90;;;5.60;99.90;;;;;;5013955;28;20304;-65
2021/10/11 02:29:17;;;;;;;22.77;18.00;;;5.70;99.90;;;;;;5013264;28;20574;-65
2021/10/11 02:31:42;;;;;;;22.07;17.57;;;5.60;99.90;;;;;;5013770;28;20175;-66
2021/10/11 02:34:08;;;;;;;19.20;16.53;;;5.60;99.90;;;;;;5013948;28;20679;-65
2021/10/11 02:36:33;;;;;;;21.17;18.30;;;5.60;99.90;;;;;;5012941;28;20179;-64
2021/10/11 02:38:59;;;;;;;20.30;17.13;;;5.60;99.90;;;;;;5013133;28;20746;-66
2021/10/11 02:41:24;;;;;;;19.53;17.57;;;5.60;99.90;;;;;;5013262;28;20727;-65
2021/10/11 02:43:50;;;;;;;22.33;17.20;;;5.60;99.90;;;;;;5013756;28;20174;-65
2021/10/11 02:46:17;;;;;;;20.20;16.20;;;5.60;99.90;;;;;;5013300;28;20199;-65
2021/10/11 02:48:42;;;;;;;24.57;17.97;;;5.60;99.90;;;;;;5012897;28;20963;-65
2021/10/11 02:51:08;;;;;;;23.20;16.93;;;5.60;99.90;;;;;;5013523;28;20195;-66
2021/10/11 02:53:33;;;;;;;22.70;17.00;;;5.60;99.90;;;;;;5013285;28;20179;-65
2021/10/11 02:55:59;;;;;;;23.60;17.43;;;5.50;99.90;;;;;;5013443;28;20185;-65
2021/10/11 02:58:25;;;;;;;27.77;19.50;;;5.50;99.90;;;;;;5013034;28;20199;-66
2021/10/11 03:00:50;;;;;;;20.03;16.40;;;5.50;99.90;;;;;;5012754;28;20211;-65
2021/10/11 03:03:16;;;;;;;21.63;16.83;;;5.50;99.90;;;;;;5013328;28;20194;-65
2021/10/11 03:05:41;;;;;;;19.00;17.00;;;5.50;99.90;;;;;;5012839;28;20240;-65
2021/10/11 03:08:07;;;;;;;24.13;19.00;;;5.50;99.90;;;;;;5012222;28;20249;-64
2021/10/11 03:10:32;;;;;;;20.93;17.27;;;5.50;99.90;;;;;;5012985;28;20559;-66
2021/10/11 03:12:58;;;;;;;19.83;17.20;;;5.40;99.90;;;;;;5012933;28;20667;-67
2021/10/11 03:15:23;;;;;;;22.20;19.00;;;5.40;99.90;;;;;;5013002;28;20175;-66
2021/10/11 03:17:49;;;;;;;20.60;18.30;;;5.50;99.90;;;;;;5012667;28;20202;-65
2021/10/11 03:20:15;;;;;;;22.93;19.33;;;5.50;99.90;;;;;;5012960;28;20550;-65
2021/10/11 03:22:40;;;;;;;26.83;19.27;;;5.40;99.90;;;;;;5012831;28;20264;-64
2021/10/11 03:25:06;;;;;;;21.07;18.17;;;5.40;99.90;;;;;;5012696;28;20202;-67
2021/10/11 03:27:32;;;;;;;18.93;16.93;;;5.50;99.90;;;;;;5012580;28;20171;-65
2021/10/11 03:29:57;;;;;;;23.20;18.03;;;5.40;99.90;;;;;;5012506;28;20195;-66
2021/10/11 03:32:22;;;;;;;23.37;17.47;;;5.40;99.90;;;;;;5012695;28;20193;-65
2021/10/11 03:34:48;;;;;;;22.00;18.40;;;5.40;99.90;;;;;;5016184;28;20621;-66
2021/10/11 03:37:14;;;;;;;20.67;16.93;;;5.30;99.90;;;;;;5032426;28;20202;-65
2021/10/11 03:39:40;;;;;;;22.17;19.83;;;5.30;99.90;;;;;;5027821;28;20515;-65
2021/10/11 03:42:06;;;;;;;21.50;17.33;;;5.30;99.90;;;;;;5012481;28;21144;-65
2021/10/11 03:44:32;;;;;;;20.50;16.80;;;5.30;99.90;;;;;;5012521;28;20206;-65
2021/10/11 03:46:57;;;;;;;21.97;17.67;;;5.30;99.90;;;;;;5012411;28;20484;-65
2021/10/11 03:49:23;;;;;;;21.20;17.20;;;5.20;99.90;;;;;;5011762;28;20202;-66
2021/10/11 03:51:48;;;;;;;19.23;16.57;;;5.20;99.90;;;;;;5012443;28;20242;-65
2021/10/11 03:54:14;;;;;;;19.17;17.17;;;5.20;99.90;;;;;;5012282;28;20191;-65
2021/10/11 03:56:39;;;;;;;25.63;18.73;;;5.20;99.90;;;;;;5012213;28;20217;-65
2021/10/11 03:59:05;;;;;;;24.30;19.00;;;5.20;99.90;;;;;;5012248;28;20194;-65
2021/10/11 04:01:31;;;;;;;21.27;17.30;;;5.20;99.90;;;;;;5013441;28;20187;-65
2021/10/11 04:03:56;;;;;;;22.07;19.03;;;5.20;99.90;;;;;;5012333;28;20633;-66
2021/10/11 04:06:22;;;;;;;21.77;18.07;;;5.20;99.90;;;;;;5012148;28;20569;-65
2021/10/11 04:08:49;;;;;;;21.93;17.33;;;5.10;99.90;;;;;;5011897;28;20202;-65
2021/10/11 04:13:44;;;;;;;21.47;16.50;;;5.10;99.90;;;;;;5011917;28;20442;-66
2021/10/11 04:16:11;;;;;;;21.80;17.20;;;5.00;99.90;;;;;;5012019;28;20437;-65
2021/10/11 04:18:36;;;;;;;22.30;18.30;;;5.00;99.90;;;;;;5011912;28;20887;-65
2021/10/11 04:21:02;;;;;;;21.30;18.13;;;5.00;99.90;;;;;;5011936;28;20461;-65
2021/10/11 04:23:28;;;;;;;21.77;18.10;;;5.00;99.90;;;;;;5011887;28;20187;-65
2021/10/11 04:25:54;;;;;;;21.97;16.57;;;5.00;99.90;;;;;;5011999;28;20179;-65
2021/10/11 04:28:20;;;;;;;20.13;17.33;;;5.00;99.90;;;;;;5011545;28;20446;-65
2021/10/11 04:30:46;;;;;;;19.10;17.10;;;5.00;99.90;;;;;;5011889;28;20487;-66
2021/10/11 04:33:12;;;;;;;22.27;17.60;;;5.10;99.90;;;;;;5012040;28;20663;-65
2021/10/11 04:35:38;;;;;;;23.50;17.73;;;5.00;99.90;;;;;;5011711;28;20438;-65
2021/10/11 04:38:04;;;;;;;22.27;17.33;;;5.00;99.90;;;;;;5011479;28;20477;-66
2021/10/11 04:40:29;;;;;;;19.13;17.00;;;5.00;99.90;;;;;;5011659;28;20668;-66
2021/10/11 04:42:55;;;;;;;25.50;18.60;;;5.00;99.90;;;;;;5011788;28;20429;-65
2021/10/11 04:45:27;;;;;;;18.17;16.23;;;5.00;99.90;;;;;;5011636;28;20690;-65
2021/10/11 04:47:54;;;;;;;20.33;17.80;;;5.00;99.90;;;;;;5011565;28;20337;-65
2021/10/11 04:50:19;;;;;;;22.53;17.30;;;5.00;99.90;;;;;;5011557;28;20433;-65
2021/10/11 04:52:45;;;;;;;22.70;20.17;;;4.90;99.90;;;;;;5011651;28;20448;-66
2021/10/11 04:55:10;;;;;;;24.60;18.47;;;4.90;99.90;;;;;;5011767;28;20648;-65
2021/10/11 04:57:36;;;;;;;23.57;18.30;;;4.90;99.90;;;;;;5011055;28;20231;-64
2021/10/11 05:00:02;;;;;;;21.70;18.30;;;4.90;99.90;;;;;;5017026;28;20202;-65
2021/10/11 05:02:27;;;;;;;23.87;18.40;;;5.00;99.90;;;;;;5015630;28;20178;-66
2021/10/11 05:04:53;;;;;;;27.77;20.97;;;5.00;99.90;;;;;;5015795;28;20807;-64
2021/10/11 05:07:18;;;;;;;23.40;19.70;;;4.90;99.90;;;;;;5017987;28;20179;-65
2021/10/11 05:09:44;;;;;;;19.70;17.10;;;4.90;99.90;;;;;;5015061;28;20179;-66
2021/10/11 05:12:09;;;;;;;25.10;17.50;;;4.90;99.90;;;;;;5015235;28;20217;-64
2021/10/11 05:14:35;;;;;;;25.00;19.10;;;4.90;99.90;;;;;;5015479;28;20175;-64
2021/10/11 05:17:00;;;;;;;22.03;18.37;;;4.90;99.90;;;;;;5015253;28;20535;-64
2021/10/11 05:19:27;;;;;;;23.10;19.30;;;4.90;99.90;;;;;;5017408;28;20209;-65
2021/10/11 05:21:54;;;;;;;24.50;19.10;;;4.90;99.90;;;;;;5022036;28;20178;-64
2021/10/11 05:24:19;;;;;;;22.30;18.00;;;4.90;99.90;;;;;;5010550;28;20421;-68
2021/10/11 05:26:45;;;;;;;25.23;18.10;;;4.90;99.90;;;;;;5022815;28;20428;-65
2021/10/11 05:29:10;;;;;;;22.90;17.50;;;4.90;99.90;;;;;;5023511;28;20309;-65
2021/10/11 05:31:37;;;;;;;24.07;18.27;;;5.00;99.90;;;;;;5019752;28;20175;-66
2021/10/11 05:34:04;;;;;;;25.50;19.47;;;4.90;99.90;;;;;;5014987;28;20182;-66
2021/10/11 05:36:31;;;;;;;28.53;19.17;;;4.90;99.90;;;;;;5013360;28;20521;-66
2021/10/11 05:38:57;;;;;;;26.80;19.73;;;4.90;99.90;;;;;;5015511;28;20473;-65
2021/10/11 05:41:23;;;;;;;23.67;17.40;;;4.90;99.90;;;;;;5014479;28;20496;-65
2021/10/11 05:43:49;;;;;;;22.17;18.20;;;4.90;99.90;;;;;;5014477;28;20426;-65
2021/10/11 05:46:14;;;;;;;21.77;18.00;;;4.90;99.90;;;;;;5014618;28;20648;-65
2021/10/11 05:48:39;;;;;;;24.67;17.80;;;4.90;99.90;;;;;;5009042;28;20278;-66
2021/10/11 05:51:05;;;;;;;27.60;19.17;;;4.80;99.90;;;;;;5014663;28;20258;-65
2021/10/11 05:53:30;;;;;;;23.50;19.80;;;4.70;99.90;;;;;;5014319;28;20565;-65
2021/10/11 05:55:56;;;;;;;23.13;18.83;;;4.70;99.90;;;;;;5013695;28;20182;-66
2021/10/11 05:58:22;;;;;;;17.40;15.67;;;4.80;99.90;;;;;;5014127;28;20202;-65
2021/10/11 06:00:47;;;;;;;21.93;18.60;;;4.90;99.90;;;;;;5013738;28;20207;-66
2021/10/11 06:03:13;;;;;;;20.57;17.13;;;4.90;99.90;;;;;;5013536;28;20710;-66
2021/10/11 06:05:38;;;;;;;19.50;17.13;;;5.00;99.90;;;;;;5014330;28;20179;-65
2021/10/11 06:08:04;;;;;;;22.60;18.63;;;5.10;99.90;;;;;;5013572;28;20206;-66
2021/10/11 06:10:29;;;;;;;20.20;18.00;;;5.10;99.90;;;;;;5009018;28;20254;-65
2021/10/11 06:12:55;;;;;;;25.00;21.40;;;5.20;99.90;;;;;;5010911;28;20190;-64
2021/10/11 06:15:21;;;;;;;26.20;21.37;;;5.20;99.90;;;;;;5014234;28;20701;-65
2021/10/11 06:17:46;;;;;;;29.30;22.40;;;5.40;99.90;;;;;;5013721;28;20726;-66
2021/10/11 06:20:12;;;;;;;22.80;19.33;;;5.50;99.90;;;;;;5014150;28;20187;-67
2021/10/11 06:22:38;;;;;;;22.03;19.43;;;5.70;99.90;;;;;;5014183;28;20282;-64
2021/10/11 06:25:05;;;;;;;24.20;18.30;;;5.90;99.90;;;;;;5014044;28;20473;-64
2021/10/11 06:27:31;;;;;;;27.63;19.83;;;6.10;99.90;;;;;;5013757;28;20179;-65
2021/10/11 06:29:57;;;;;;;21.40;19.20;;;6.20;99.90;;;;;;5014154;28;20425;-64
2021/10/11 06:32:23;;;;;;;38.47;26.27;;;6.40;99.90;;;;;;5013817;28;20421;-64
2021/10/11 06:34:48;;;;;;;30.17;22.60;;;6.50;99.90;;;;;;5012705;28;20428;-64
2021/10/11 06:37:14;;;;;;;28.80;24.50;;;6.60;99.90;;;;;;5012886;28;20198;-65
2021/10/11 06:39:39;;;;;;;29.77;23.43;;;6.60;99.90;;;;;;5013646;28;20277;-65
2021/10/11 06:42:05;;;;;;;23.40;21.00;;;6.80;99.90;;;;;;5013854;28;20544;-65
2021/10/11 06:44:31;;;;;;;24.80;18.53;;;6.80;99.90;;;;;;5013501;28;20174;-65
2021/10/11 06:46:57;;;;;;;26.93;21.80;;;6.90;99.90;;;;;;5013499;28;20175;-65
2021/10/11 06:49:22;;;;;;;24.13;21.27;;;7.00;99.90;;;;;;5013370;28;20967;-65
2021/10/11 06:51:48;;;;;;;28.03;20.23;;;6.80;99.90;;;;;;5014053;28;20305;-64
2021/10/11 06:54:14;;;;;;;23.70;20.00;;;6.70;99.90;;;;;;5013595;28;20175;-64
2021/10/11 06:56:39;;;;;;;27.67;20.83;;;7.00;99.90;;;;;;5013596;28;20202;-65
2021/10/11 06:59:05;;;;;;;25.10;22.10;;;7.40;99.90;;;;;;5013208;28;20273;-65
2021/10/11 07:01:30;;;;;;;24.53;20.50;;;7.80;99.90;;;;;;5013395;28;20203;-65
2021/10/11 07:03:56;;;;;;;28.37;24.87;;;8.10;99.90;;;;;;5013531;28;20175;-66
2021/10/11 07:06:23;;;;;;;28.23;24.47;;;8.30;99.90;;;;;;5013433;28;20552;-64
2021/10/11 07:08:49;;;;;;;31.53;26.87;;;8.60;99.90;;;;;;5013017;28;20461;-63
2021/10/11 07:11:14;;;;;;;26.73;24.00;;;9.10;99.90;;;;;;5013403;28;20425;-64
2021/10/11 07:13:40;;;;;;;21.73;19.33;;;9.50;99.90;;;;;;5013259;28;20240;-64
2021/10/11 07:16:06;;;;;;;22.30;19.70;;;10.10;99.90;;;;;;5011973;28;20178;-63
2021/10/11 07:18:33;;;;;;;22.43;17.43;;;10.20;99.90;;;;;;5012857;28;20195;-64
2021/10/11 07:21:03;;;;;;;21.90;18.63;;;10.70;99.90;;;;;;5011714;28;20483;-65
2021/10/11 07:23:29;;;;;;;24.77;17.00;;;11.00;99.90;;;;;;5010114;28;20445;-64
2021/10/11 07:25:56;;;;;;;22.10;17.43;;;11.40;99.90;;;;;;5012372;28;20436;-66
2021/10/11 07:28:21;;;;;;;21.70;16.60;;;11.70;99.90;;;;;;5005969;28;20198;-66
2021/10/11 07:30:47;;;;;;;16.80;15.00;;;11.80;99.90;;;;;;5010890;28;20442;-66
2021/10/11 07:33:12;;;;;;;21.00;17.00;;;11.90;99.90;;;;;;5012362;28;20182;-66
2021/10/11 07:35:39;;;;;;;20.20;17.20;;;11.90;99.90;;;;;;4987626;28;20190;-66
2021/10/11 07:38:05;;;;;;;23.70;18.87;;;12.00;99.90;;;;;;4993227;28;20214;-66
2021/10/11 07:40:32;;;;;;;21.40;18.83;;;12.10;99.90;;;;;;5011850;28;20983;-66
2021/10/11 07:42:57;;;;;;;19.03;16.97;;;11.90;99.90;;;;;;5011888;28;20437;-64
2021/10/11 07:45:23;;;;;;;22.63;18.00;;;12.10;99.90;;;;;;5011827;28;20426;-66
2021/10/11 07:47:48;;;;;;;20.90;18.00;;;12.20;99.90;;;;;;5012014;28;20195;-66
2021/10/11 07:50:14;;;;;;;26.97;23.33;;;12.20;99.90;;;;;;5011898;28;20171;-66
2021/10/11 07:52:40;;;;;;;22.37;17.80;;;12.30;99.90;;;;;;5011347;28;20252;-66
2021/10/11 07:55:05;;;;;;;20.07;17.87;;;12.40;99.90;;;;;;5012387;28;20254;-67
2021/10/11 07:57:33;;;;;;;19.40;16.23;;;12.50;99.90;;;;;;5003351;28;20634;-65
2021/10/11 08:00:04;;;;;;;19.70;17.70;;;12.60;99.90;;;;;;5005811;28;20341;-66
2021/10/11 08:02:30;;;;;;;20.03;17.90;;;13.00;99.90;;;;;;5012308;28;20447;-66
2021/10/11 08:04:56;;;;;;;20.47;17.00;;;13.50;99.90;;;;;;5012045;28;20422;-66
2021/10/11 08:07:21;;;;;;;20.10;17.67;;;14.00;99.90;;;;;;5011519;28;20833;-67
2021/10/11 08:09:47;;;;;;;19.67;17.50;;;14.60;99.90;;;;;;5011799;28;20651;-66
2021/10/11 08:12:12;;;;;;;23.23;19.43;;;15.10;99.90;;;;;;5010967;28;20187;-66
2021/10/11 08:14:38;;;;;;;20.43;18.37;;;15.20;99.90;;;;;;5011654;28;20185;-66
2021/10/11 08:17:03;;;;;;;19.57;17.63;;;15.20;99.90;;;;;;5010825;28;20190;-65
2021/10/11 08:19:29;;;;;;;20.80;18.27;;;15.50;99.90;;;;;;5010242;28;20691;-66
2021/10/11 08:21:55;;;;;;;20.13;17.63;;;15.70;99.90;;;;;;5011524;28;20663;-66
2021/10/11 08:24:20;;;;;;;21.13;18.70;;;16.10;99.90;;;;;;4996971;28;20175;-66
2021/10/11 08:26:46;;;;;;;19.63;17.60;;;16.30;99.90;;;;;;5006123;28;20444;-66
2021/10/11 08:29:12;;;;;;;19.93;17.83;;;16.40;99.90;;;;;;5001736;28;20195;-66
2021/10/11 08:31:38;;;;;;;20.53;18.43;;;16.30;99.90;;;;;;5008543;28;20190;-66
2021/10/11 08:34:04;;;;;;;17.87;16.13;;;16.60;99.90;;;;;;5008011;28;20186;-66
2021/10/11 08:36:29;;;;;;;21.00;17.63;;;17.40;99.90;;;;;;5010964;28;20441;-67
2021/10/11 08:38:55;;;;;;;21.20;17.37;;;17.50;99.90;;;;;;5011134;28;20225;-67
2021/10/11 08:41:21;;;;;;;19.50;16.53;;;18.00;99.90;;;;;;5011948;28;20251;-67
2021/10/11 08:43:46;;;;;;;18.90;17.10;;;18.50;99.30;;;;;;5012137;28;20177;-66
2021/10/11 08:46:12;;;;;;;19.73;17.83;;;18.80;98.30;;;;;;5012356;28;20189;-67
2021/10/11 08:48:38;;;;;;;19.07;17.43;;;19.70;96.80;;;;;;5009762;28;20257;-67
2021/10/11 08:51:05;;;;;;;26.27;23.57;;;20.20;94.90;;;;;;5007445;28;20257;-67
2021/10/11 08:53:30;;;;;;;18.13;16.43;;;20.40;94.40;;;;;;5007310;28;20209;-67
2021/10/11 08:55:56;;;;;;;19.47;15.30;;;20.70;93.30;;;;;;5005916;28;20434;-68
2021/10/11 08:58:21;;;;;;;18.30;16.30;;;20.90;92.40;;;;;;5006411;28;20206;-67
2021/10/11 09:00:47;;;;;;;16.47;14.90;;;21.30;91.30;;;;;;5010831;28;20207;-67
2021/10/11 09:03:17;;;;;;;16.47;15.00;;;22.00;90.30;;;;;;5004876;28;20211;-68
2021/10/11 09:05:46;;;;;;;18.37;15.03;;;21.70;89.00;;;;;;5004740;28;20186;-68
2021/10/11 09:08:14;;;;;;;18.80;16.00;;;22.20;88.60;;;;;;5004635;28;20536;-68
2021/10/11 09:10:58;;;;;;;16.80;15.07;;;21.90;88.00;;;;;;5003843;28;20437;-67
2021/10/11 09:13:28;;;;;;;15.43;14.10;;;22.10;85.10;;;;;;4998921;28;20579;-68
2021/10/11 09:16:33;;;;;;;17.30;15.57;;;21.90;84.80;;;;;;5011053;28;20857;-67
2021/10/11 09:19:18;;;;;;;16.30;14.90;;;21.40;85.90;;;;;;5001051;28;20526;-68
2021/10/11 09:21:44;;;;;;;16.60;15.10;;;21.00;85.90;;;;;;5010647;28;20461;-67
2021/10/11 09:24:13;;;;;;;15.60;14.20;;;20.20;88.50;;;;;;5010974;28;20461;-67
2021/10/11 09:26:56;;;;;;;16.73;15.17;;;20.30;87.50;;;;;;5011655;28;20468;-66
2021/10/11 09:29:41;;;;;;;16.90;15.10;;;19.80;88.60;;;;;;5011207;28;20833;-66
2021/10/11 09:32:09;;;;;;;17.37;15.80;;;19.70;90.10;;;;;;5011276;28;20430;-66
2021/10/11 09:34:35;;;;;;;16.40;14.33;;;19.30;90.60;;;;;;5011191;28;20435;-66
2021/10/11 09:37:03;;;;;;;16.87;15.17;;;19.50;90.20;;;;;;5011051;28;20511;-67
2021/10/11 09:39:32;;;;;;;17.07;15.57;;;20.20;89.90;;;;;;5010799;28;20563;-66
2021/10/11 09:41:59;;;;;;;16.53;14.93;;;20.80;87.90;;;;;;5009862;28;20442;-67
2021/10/11 09:44:25;;;;;;;17.50;13.83;;;21.60;86.50;;;;;;5015700;28;20440;-67
2021/10/11 09:46:57;;;;;;;17.00;15.27;;;22.40;83.30;;;;;;5014074;28;20442;-67
2021/10/11 09:49:26;;;;;;;15.17;13.60;;;23.40;79.90;;;;;;4997450;28;21210;-68
2021/10/11 09:51:53;;;;;;;15.23;13.90;;;24.20;76.50;;;;;;5007092;28;20433;-68
2021/10/11 09:54:19;;;;;;;15.47;14.07;;;24.70;73.30;;;;;;5002413;28;20924;-67
2021/10/11 09:56:47;;;;;;;14.33;13.13;;;25.10;72.20;;;;;;5010912;28;20623;-67
2021/10/11 09:59:13;;;;;;;15.53;14.30;;;25.90;67.60;;;;;;5008783;28;20453;-68
2021/10/11 10:01:45;;;;;;;14.90;13.50;;;26.60;64.70;;;;;;5010992;28;20465;-67
2021/10/11 10:04:17;;;;;;;15.70;12.70;;;26.80;62.60;;;;;;5007408;28;20441;-68
2021/10/11 10:06:46;;;;;;;20.50;18.40;;;26.70;59.50;;;;;;5002478;28;20422;-67
2021/10/11 10:09:13;;;;;;;15.87;14.50;;;26.90;60.40;;;;;;5013303;28;20889;-67
2021/10/11 10:11:40;;;;;;;14.60;13.47;;;27.90;56.80;;;;;;5014555;28;20476;-66
2021/10/11 10:14:07;;;;;;;16.17;14.57;;;28.50;56.00;;;;;;5013876;28;20967;-70
2021/10/11 10:16:34;;;;;;;14.30;13.10;;;28.90;54.30;;;;;;5014405;28;20430;-72
2021/10/11 10:19:11;;;;;;;15.07;13.57;;;29.80;52.40;;;;;;5013615;28;20476;-71
2021/10/11 10:21:39;;;;;;;15.37;13.80;;;29.40;51.60;;;;;;5013612;28;20833;-72
2021/10/11 10:24:05;;;;;;;15.50;14.30;;;29.90;50.00;;;;;;5013464;28;20437;-72
2021/10/11 10:26:34;;;;;;;16.30;13.40;;;30.10;50.00;;;;;;5013291;28;20772;-69
2021/10/11 10:29:11;;;;;;;14.70;13.27;;;30.50;48.60;;;;;;5012880;28;20230;-70
2021/10/11 10:31:37;;;;;;;15.60;14.30;;;30.40;48.10;;;;;;5012943;28;20488;-69
2021/10/11 10:34:18;;;;;;;14.93;13.63;;;30.00;47.10;;;;;;5013336;28;20931;-67
2021/10/11 10:36:45;;;;;;;17.03;15.17;;;29.50;47.70;;;;;;5013360;28;20175;-65
2021/10/11 10:39:14;;;;;;;15.60;14.10;;;30.00;46.90;;;;;;5001665;28;20499;-65
2021/10/11 10:41:43;;;;;;;15.47;14.17;;;29.80;46.80;;;;;;4999421;28;20453;-64
2021/10/11 10:44:20;;;;;;;16.63;15.13;;;29.70;45.90;;;;;;5010052;28;21186;-65
2021/10/11 10:46:56;;;;;;;13.50;12.50;;;29.10;46.00;;;;;;5009062;28;20437;-64
2021/10/11 10:49:47;;;;;;;16.37;14.70;;;29.30;45.70;;;;;;5008889;28;20503;-64
2021/10/11 10:52:18;;;;;;;14.00;12.70;;;28.60;46.10;;;;;;5003256;28;21023;-64
2021/10/11 10:54:45;;;;;;;16.53;14.97;;;28.50;47.00;;;;;;5009387;28;20463;-64
2021/10/11 10:57:17;;;;;;;15.73;14.23;;;29.40;45.90;;;;;;5008554;28;20877;-63
2021/10/11 10:59:51;;;;;;;15.57;14.07;;;30.10;44.60;;;;;;5008436;28;20830;-64
2021/10/11 11:02:17;;;;;;;16.00;14.60;;;30.70;43.00;;;;;;5009001;28;20496;-64
2021/10/11 11:04:57;;;;;;;14.47;13.27;;;30.20;42.70;;;;;;5009227;28;20445;-64
2021/10/11 11:07:50;;;;;;;14.53;13.13;;;29.70;42.90;;;;;;5008709;28;20374;-64
2021/10/11 11:10:21;;;;;;;17.40;14.67;;;28.40;44.30;;;;;;5002360;28;20524;-66
2021/10/11 11:12:57;;;;;;;17.60;15.90;;;28.40;45.30;;;;;;5009465;28;20457;-67
2021/10/11 11:15:29;;;;;;;18.63;16.60;;;28.80;44.70;;;;;;5009411;28;20433;-66
2021/10/11 11:18:01;;;;;;;17.43;15.83;;;28.50;44.70;;;;;;5005456;28;20915;-66
2021/10/11 11:20:33;;;;;;;16.93;15.63;;;28.30;45.10;;;;;;5009110;28;21154;-66
2021/10/11 11:23:05;;;;;;;17.63;15.87;;;29.20;44.80;;;;;;5009007;28;20444;-65
2021/10/11 11:25:37;;;;;;;18.33;16.50;;;30.10;43.90;;;;;;5003417;28;20962;-65
2021/10/11 11:28:05;;;;;;;17.63;16.03;;;30.60;42.40;;;;;;5009088;28;21029;-69
2021/10/11 11:30:32;;;;;;;18.10;16.47;;;29.20;43.70;;;;;;5008955;28;20472;-67
2021/10/11 11:33:03;;;;;;;17.43;15.90;;;28.10;43.80;;;;;;5008402;28;20438;-67
2021/10/11 11:35:30;;;;;;;19.13;16.83;;;27.60;44.40;;;;;;5005201;28;20445;-66
2021/10/11 11:37:58;;;;;;;17.20;15.00;;;25.90;46.10;;;;;;5010318;28;20465;-67
2021/10/11 11:40:27;;;;;;;17.20;15.27;;;27.70;45.90;;;;;;5008873;28;21117;-67
2021/10/11 11:42:54;;;;;;;16.53;14.93;;;28.80;45.10;;;;;;5008786;28;20761;-65
2021/10/11 11:45:21;;;;;;;14.73;13.53;;;29.50;43.30;;;;;;5007682;28;20623;-67
2021/10/11 11:47:47;;;;;;;15.80;14.43;;;30.30;43.90;;;;;;5008582;28;20473;-67
2021/10/11 11:50:22;;;;;;;18.03;16.20;;;29.50;43.50;;;;;;5008725;28;20465;-67
2021/10/11 11:52:57;;;;;;;17.00;15.60;;;28.80;44.00;;;;;;5003420;28;20213;-67
2021/10/11 11:55:22;;;;;;;18.50;16.60;;;26.60;45.10;;;;;;5008624;28;20444;-66
2021/10/11 11:57:48;;;;;;;15.37;14.07;;;25.40;46.70;;;;;;5008677;28;20454;-65
2021/10/11 12:00:14;;;;;;;19.47;17.37;;;24.30;48.80;;;;;;5008522;28;20654;-67
2021/10/11 12:02:43;;;;;;;18.60;16.60;;;22.30;52.10;;;;;;5008398;28;20187;-67
2021/10/11 12:05:09;;;;;;;20.10;17.70;;;21.30;54.50;;;;;;5007919;28;20438;-66
2021/10/11 12:07:35;;;;;;;21.37;19.30;;;21.70;55.20;;;;;;5007755;28;20890;-66
2021/10/11 12:10:00;;;;;;;17.47;15.87;;;22.60;54.10;;;;;;5007436;28;20577;-67
2021/10/11 12:12:34;;;;;;;16.80;15.13;;;24.30;51.70;;;;;;5008039;28;20561;-66
2021/10/11 12:14:59;;;;;;;16.67;14.87;;;26.30;49.80;;;;;;5007623;28;20175;-66
2021/10/11 12:17:33;;;;;;;17.40;15.90;;;28.10;47.60;;;;;;5007821;28;20954;-64
2021/10/11 12:19:59;;;;;;;15.60;14.40;;;28.90;45.90;;;;;;5008057;28;20314;-64
2021/10/11 12:22:32;;;;;;;17.20;15.60;;;29.70;45.60;;;;;;5007332;28;20438;-64
2021/10/11 12:25:00;;;;;;;17.57;15.87;;;29.70;44.70;;;;;;5007313;28;21126;-65
2021/10/11 12:27:26;;;;;;;20.03;16.93;;;29.70;44.70;;;;;;5005262;28;20516;-65
2021/10/11 12:29:54;;;;;;;17.80;16.30;;;29.30;44.80;;;;;;5006612;28;20822;-65
2021/10/11 12:32:30;;;;;;;17.17;15.77;;;27.50;45.40;;;;;;5007951;28;20520;-64
2021/10/11 12:34:58;;;;;;;16.23;14.83;;;26.90;47.60;;;;;;5008014;28;20875;-64